sensor_id;sensor_type;location;lat;lon;timestamp;pressure;altitude;pressure_sealevel;temperature;humidity
9229;BME280;4649;42.644;23.284;2023-04-26T05:19:38;91960.75;;;10.64;99.31
9229;BME280;4649;42.644;23.284;2023-04-26T05:22:24;92135.47;;;12.30;96.12
9229;BME280;4649;42.644;23.284;2023-04-26T05:25:12;91995.72;;;12.04;92.79
9229;BME280;4649;42.644;23.284;2023-04-26T05:27:41;92070.69;;;13.14;89.95
9229;BME280;4649;42.644;23.284;2023-04-26T05:30:11;92083.91;;;13.38;89.13
9229;BME280;4649;42.644;23.284;2023-04-26T05:32:39;92050.34;;;13.28;86.78
9229;BME280;4649;42.644;23.284;2023-04-26T05:35:31;92072.91;;;13.63;87.32
9229;BME280;4649;42.644;23.284;2023-04-26T05:38:10;92146.63;;;14.36;85.41
9229;BME280;4649;42.644;23.284;2023-04-26T05:40:42;92155.47;;;14.29;83.37
9229;BME280;4649;42.644;23.284;2023-04-26T05:43:15;92008.59;;;13.18;84.24
9229;BME280;4649;42.644;23.284;2023-04-26T05:45:52;91991.81;;;13.27;82.74
9229;BME280;4649;42.644;23.284;2023-04-26T05:48:33;92090.53;;;14.05;82.21
9229;BME280;4649;42.644;23.284;2023-04-26T05:51:17;92164.03;;;14.68;81.10
9229;BME280;4649;42.644;23.284;2023-04-26T05:54:19;91974.69;;;13.39;80.17
9229;BME280;4649;42.644;23.284;2023-04-26T05:56:55;92093.81;;;14.39;79.53
9229;BME280;4649;42.644;23.284;2023-04-26T06:02:42;92117.25;;;14.99;77.87
9229;BME280;4649;42.644;23.284;2023-04-26T06:05:38;92121.75;;;15.84;66.60
9229;BME280;4649;42.644;23.284;2023-04-26T06:08:14;92126.06;;;16.17;58.75
9229;BME280;4649;42.644;23.284;2023-04-26T06:11:08;92160.97;;;16.41;57.31
9229;BME280;4649;42.644;23.284;2023-04-26T06:13:55;92000.28;;;15.01;56.79
9229;BME280;4649;42.644;23.284;2023-04-26T06:16:40;91983.91;;;14.57;58.30
9229;BME280;4649;42.644;23.284;2023-04-26T06:19:14;92034.78;;;14.99;58.42
9229;BME280;4649;42.644;23.284;2023-04-26T06:21:42;92142.28;;;15.70;58.43
9229;BME280;4649;42.644;23.284;2023-04-26T06:24:17;92105.72;;;15.28;58.38
9229;BME280;4649;42.644;23.284;2023-04-26T06:26:54;91983.50;;;14.45;58.25
9229;BME280;4649;42.644;23.284;2023-04-26T06:29:22;91988.00;;;13.85;60.73
9229;BME280;4649;42.644;23.284;2023-04-26T06:32:01;92142.81;;;14.39;62.39
9229;BME280;4649;42.644;23.284;2023-04-26T06:35:10;92031.28;;;13.00;64.02
9229;BME280;4649;42.644;23.284;2023-04-26T06:37:56;92135.34;;;14.04;63.03
9229;BME280;4649;42.644;23.284;2023-04-26T07:19:03;92015.53;;;15.12;52.54
9229;BME280;4649;42.644;23.284;2023-04-26T07:21:45;92117.69;;;16.15;50.70
9229;BME280;4649;42.644;23.284;2023-04-26T07:24:46;92168.53;;;16.79;45.13
9229;BME280;4649;42.644;23.284;2023-04-26T07:27:25;92003.94;;;15.11;44.27
9229;BME280;4649;42.644;23.284;2023-04-26T07:30:38;92092.47;;;15.55;45.21
9229;BME280;4649;42.644;23.284;2023-04-26T07:33:30;92167.34;;;16.50;44.65
9229;BME280;4649;42.644;23.284;2023-04-26T07:46:39;92012.09;;;15.11;47.11
9229;BME280;4649;42.644;23.284;2023-04-26T07:49:23;92203.53;;;16.66;47.66
9229;BME280;4649;42.644;23.284;2023-04-26T07:52:17;92105.38;;;15.84;46.21
9229;BME280;4649;42.644;23.284;2023-04-26T08:21:48;92093.19;;;15.70;47.82
9229;BME280;4649;42.644;23.284;2023-04-26T08:24:57;92096.25;;;15.22;48.83
9229;BME280;4649;42.644;23.284;2023-04-26T08:28:00;92049.88;;;13.99;51.32
9229;BME280;4649;42.644;23.284;2023-04-26T08:31:11;92012.50;;;14.00;50.03
9229;BME280;4649;42.644;23.284;2023-04-26T08:39:59;92096.75;;;14.48;50.02
9229;BME280;4649;42.644;23.284;2023-04-26T08:42:59;92219.16;;;15.31;50.76
9229;BME280;4649;42.644;23.284;2023-04-26T08:46:20;92216.44;;;15.39;49.53
9229;BME280;4649;42.644;23.284;2023-04-26T08:49:12;92215.16;;;15.40;48.84
9229;BME280;4649;42.644;23.284;2023-04-26T08:52:26;92029.94;;;13.97;48.27
9229;BME280;4649;42.644;23.284;2023-04-26T09:04:51;92216.69;;;15.71;49.81
9229;BME280;4649;42.644;23.284;2023-04-26T09:07:29;92185.75;;;15.90;50.05
9229;BME280;4649;42.644;23.284;2023-04-26T09:10:22;92031.50;;;14.85;49.03
9229;BME280;4649;42.644;23.284;2023-04-26T09:12:55;92038.41;;;14.71;49.88
9229;BME280;4649;42.644;23.284;2023-04-26T09:15:26;92187.03;;;15.75;49.57
9229;BME280;4649;42.644;23.284;2023-04-26T09:17:53;92152.63;;;15.64;48.78
9229;BME280;4649;42.644;23.284;2023-04-26T09:21:03;92060.03;;;14.84;48.80
9229;BME280;4649;42.644;23.284;2023-04-26T09:23:34;92079.31;;;15.09;47.76
9229;BME280;4649;42.644;23.284;2023-04-26T09:26:28;92039.28;;;14.66;48.91
9229;BME280;4649;42.644;23.284;2023-04-26T09:29:27;92039.16;;;14.87;48.90
9229;BME280;4649;42.644;23.284;2023-04-26T09:32:56;92047.88;;;15.00;48.88
9229;BME280;4649;42.644;23.284;2023-04-26T09:35:39;92230.69;;;15.89;48.81
9229;BME280;4649;42.644;23.284;2023-04-26T09:38:45;92227.59;;;16.23;47.93
9229;BME280;4649;42.644;23.284;2023-04-26T09:41:15;92116.84;;;15.75;47.19
9229;BME280;4649;42.644;23.284;2023-04-26T09:43:43;92154.06;;;16.47;46.77
9229;BME280;4649;42.644;23.284;2023-04-26T09:49:18;92119.44;;;16.49;44.64
9229;BME280;4649;42.644;23.284;2023-04-26T09:52:00;92144.56;;;16.63;44.54
9229;BME280;4649;42.644;23.284;2023-04-26T09:54:52;92105.06;;;16.49;44.80
9229;BME280;4649;42.644;23.284;2023-04-26T09:57:20;92180.50;;;16.99;44.66
9229;BME280;4649;42.644;23.284;2023-04-26T09:59:54;92217.59;;;17.16;43.68
9229;BME280;4649;42.644;23.284;2023-04-26T10:02:25;92214.25;;;16.86;45.01
9229;BME280;4649;42.644;23.284;2023-04-26T10:04:58;92222.78;;;16.90;44.30
9229;BME280;4649;42.644;23.284;2023-04-26T10:07:29;92212.28;;;16.72;45.23
9229;BME280;4649;42.644;23.284;2023-04-26T10:10:00;92029.03;;;15.54;45.15
9229;BME280;4649;42.644;23.284;2023-04-26T10:12:28;92015.19;;;15.45;44.40
9229;BME280;4649;42.644;23.284;2023-04-26T10:15:02;92030.25;;;15.76;44.04
9229;BME280;4649;42.644;23.284;2023-04-26T10:17:32;92212.03;;;17.00;43.00
9229;BME280;4649;42.644;23.284;2023-04-26T10:20:04;92028.03;;;15.89;43.25
9229;BME280;4649;42.644;23.284;2023-04-26T10:22:39;92092.25;;;15.97;44.54
9229;BME280;4649;42.644;23.284;2023-04-26T10:25:16;92111.16;;;16.03;44.31
9229;BME280;4649;42.644;23.284;2023-04-26T10:27:51;92200.78;;;16.81;43.16
9229;BME280;4649;42.644;23.284;2023-04-26T10:30:20;92196.66;;;16.65;43.15
9229;BME280;4649;42.644;23.284;2023-04-26T10:33:12;92096.81;;;15.87;44.79
9229;BME280;4649;42.644;23.284;2023-04-26T10:36:14;92027.56;;;15.16;42.67
9229;BME280;4649;42.644;23.284;2023-04-26T10:45:34;92139.75;;;15.57;44.26
9229;BME280;4649;42.644;23.284;2023-04-26T10:48:13;92069.34;;;15.11;43.98
9229;BME280;4649;42.644;23.284;2023-04-26T10:51:14;92094.56;;;15.12;44.47
9229;BME280;4649;42.644;23.284;2023-04-26T10:54:03;92048.00;;;14.72;43.25
9229;BME280;4649;42.644;23.284;2023-04-26T10:56:51;92018.72;;;14.51;43.63
9229;BME280;4649;42.644;23.284;2023-04-26T10:59:34;92081.50;;;15.10;43.54
9229;BME280;4649;42.644;23.284;2023-04-26T11:02:43;92021.31;;;14.78;41.97
9229;BME280;4649;42.644;23.284;2023-04-26T11:08:15;92095.38;;;15.34;41.39
9229;BME280;4649;42.644;23.284;2023-04-26T11:10:50;92137.19;;;15.82;42.84
9229;BME280;4649;42.644;23.284;2023-04-26T11:13:20;92198.16;;;15.99;41.96
9229;BME280;4649;42.644;23.284;2023-04-26T11:15:52;92037.16;;;15.02;42.42
9229;BME280;4649;42.644;23.284;2023-04-26T11:18:22;92137.56;;;15.71;43.23
9229;BME280;4649;42.644;23.284;2023-04-26T11:21:06;92198.50;;;15.66;43.27
9229;BME280;4649;42.644;23.284;2023-04-26T11:23:55;92170.69;;;15.75;41.48
9229;BME280;4649;42.644;23.284;2023-04-26T11:26:32;92149.72;;;15.40;41.81
9229;BME280;4649;42.644;23.284;2023-04-26T11:29:28;91997.63;;;14.36;41.91
9229;BME280;4649;42.644;23.284;2023-04-26T11:31:57;92100.22;;;15.14;42.76
9229;BME280;4649;42.644;23.284;2023-04-26T11:34:36;92056.22;;;14.95;41.21
9229;BME280;4649;42.644;23.284;2023-04-26T11:37:04;92203.97;;;16.03;42.00
9229;BME280;4649;42.644;23.284;2023-04-26T11:39:32;92210.50;;;16.07;42.11
9229;BME280;4649;42.644;23.284;2023-04-26T11:42:04;92140.31;;;15.63;41.44
9229;BME280;4649;42.644;23.284;2023-04-26T11:44:32;92180.28;;;15.46;43.09
9229;BME280;4649;42.644;23.284;2023-04-26T11:47:05;92152.81;;;15.36;42.90
9229;BME280;4649;42.644;23.284;2023-04-26T11:52:35;92163.34;;;15.25;44.13
9229;BME280;4649;42.644;23.284;2023-04-26T11:55:06;92091.41;;;14.70;42.35
9229;BME280;4649;42.644;23.284;2023-04-26T11:57:44;92138.72;;;15.10;43.51
9229;BME280;4649;42.644;23.284;2023-04-26T12:00:13;92101.03;;;14.71;42.70
9229;BME280;4649;42.644;23.284;2023-04-26T12:03:03;92208.84;;;15.60;42.93
9229;BME280;4649;42.644;23.284;2023-04-26T12:05:39;92022.31;;;14.38;42.66
9229;BME280;4649;42.644;23.284;2023-04-26T12:11:59;92174.09;;;15.45;43.03
9229;BME280;4649;42.644;23.284;2023-04-26T12:18:08;91999.06;;;14.30;43.97
9229;BME280;4649;42.644;23.284;2023-04-26T12:20:38;92034.81;;;14.34;43.59
9229;BME280;4649;42.644;23.284;2023-04-26T12:23:07;92037.91;;;14.30;42.90
9229;BME280;4649;42.644;23.284;2023-04-26T12:25:51;92103.34;;;14.60;44.32
9229;BME280;4649;42.644;23.284;2023-04-26T12:31:47;92116.22;;;14.60;42.19
9229;BME280;4649;42.644;23.284;2023-04-26T12:34:23;92112.41;;;14.55;42.92
9229;BME280;4649;42.644;23.284;2023-04-26T12:37:56;92196.91;;;15.20;43.68
9229;BME280;4649;42.644;23.284;2023-04-26T12:43:33;92190.97;;;14.86;44.05
9229;BME280;4649;42.644;23.284;2023-04-26T12:46:24;91989.50;;;13.31;43.99
9229;BME280;4649;42.644;23.284;2023-04-26T12:49:14;92118.75;;;14.15;45.13
9229;BME280;4649;42.644;23.284;2023-04-26T12:52:32;92190.94;;;14.79;45.40
9229;BME280;4649;42.644;23.284;2023-04-26T12:55:52;92004.06;;;13.40;45.34
9229;BME280;4649;42.644;23.284;2023-04-26T12:59:09;91981.91;;;13.09;45.73
9229;BME280;4649;42.644;23.284;2023-04-26T13:05:31;92013.31;;;12.97;46.55
9229;BME280;4649;42.644;23.284;2023-04-26T13:08:03;92065.41;;;13.56;46.64
9229;BME280;4649;42.644;23.284;2023-04-26T13:11:21;92199.13;;;14.16;47.82
9229;BME280;4649;42.644;23.284;2023-04-26T13:14:08;92148.66;;;13.67;46.82
9229;BME280;4649;42.644;23.284;2023-04-26T13:17:01;92203.63;;;14.13;48.18
9229;BME280;4649;42.644;23.284;2023-04-26T13:22:54;92057.31;;;12.62;47.74
9229;BME280;4649;42.644;23.284;2023-04-26T13:25:49;92091.13;;;12.74;47.08
9229;BME280;4649;42.644;23.284;2023-04-26T13:28:48;92169.69;;;13.26;47.60
9229;BME280;4649;42.644;23.284;2023-04-26T13:41:14;92106.59;;;12.20;49.05
9229;BME280;4649;42.644;23.284;2023-04-26T13:43:56;92233.06;;;13.08;48.23
9229;BME280;4649;42.644;23.284;2023-04-26T13:46:38;92193.44;;;12.66;48.43
9229;BME280;4649;42.644;23.284;2023-04-26T13:49:12;92242.19;;;12.84;48.33
9229;BME280;4649;42.644;23.284;2023-04-26T13:52:18;92241.44;;;12.84;49.36
9229;BME280;4649;42.644;23.284;2023-04-26T13:54:51;92242.50;;;12.81;49.59
9229;BME280;4649;42.644;23.284;2023-04-26T13:57:41;92253.78;;;12.85;50.27
9229;BME280;4649;42.644;23.284;2023-04-26T14:00:52;92141.94;;;11.89;50.73
9229;BME280;4649;42.644;23.284;2023-04-26T14:03:57;92266.97;;;12.68;51.12
9229;BME280;4649;42.644;23.284;2023-04-26T14:06:55;92094.78;;;11.40;51.78
9229;BME280;4649;42.644;23.284;2023-04-26T14:22:03;92229.59;;;12.22;52.94
9229;BME280;4649;42.644;23.284;2023-04-26T14:25:02;92273.41;;;12.52;52.38
9229;BME280;4649;42.644;23.284;2023-04-26T14:36:16;92077.47;;;10.55;54.90
9229;BME280;4649;42.644;23.284;2023-04-26T14:48:39;92317.31;;;11.81;57.78
9229;BME280;4649;42.644;23.284;2023-04-26T14:51:24;92125.44;;;10.36;59.38
9229;BME280;4649;42.644;23.284;2023-04-26T15:00:55;92342.44;;;11.50;61.58
9229;BME280;4649;42.644;23.284;2023-04-26T15:07:25;92202.56;;;10.42;60.98
9229;BME280;4649;42.644;23.284;2023-04-26T15:09:58;92190.56;;;10.38;61.79
9229;BME280;4649;42.644;23.284;2023-04-26T15:13:03;92169.56;;;10.26;62.05
9229;BME280;4649;42.644;23.284;2023-04-26T15:16:01;92279.31;;;11.00;62.71
9229;BME280;4649;42.644;23.284;2023-04-26T15:18:46;92156.16;;;9.96;62.95
9229;BME280;4649;42.644;23.284;2023-04-26T16:01:24;92413.53;;;11.93;61.46
9229;BME280;4649;42.644;23.284;2023-04-26T16:04:32;92213.09;;;10.46;61.96
9229;BME280;4649;42.644;23.284;2023-04-26T16:10:01;92416.25;;;11.74;62.69
9229;BME280;4649;42.644;23.284;2023-04-26T16:19:25;92317.28;;;10.52;65.47
9229;BME280;4649;42.644;23.284;2023-04-26T16:22:24;92238.94;;;9.99;65.12
9229;BME280;4649;42.644;23.284;2023-04-26T16:27:45;92256.78;;;10.08;65.45
9229;BME280;4649;42.644;23.284;2023-04-26T16:45:36;92456.94;;;11.08;67.09
9229;BME280;4649;42.644;23.284;2023-04-26T16:48:24;92273.94;;;9.86;66.55
9229;BME280;4649;42.644;23.284;2023-04-26T16:50:58;92284.09;;;9.75;66.75
9229;BME280;4649;42.644;23.284;2023-04-26T16:53:31;92322.81;;;10.18;67.05
9229;BME280;4649;42.644;23.284;2023-04-26T16:55:59;92454.44;;;10.87;67.21
9229;BME280;4649;42.644;23.284;2023-04-26T16:58:34;92254.06;;;9.20;68.23
9229;BME280;4649;42.644;23.284;2023-04-26T17:01:38;92263.94;;;9.47;67.85
9229;BME280;4649;42.644;23.284;2023-04-26T17:07:00;92409.41;;;10.36;67.16
9229;BME280;4649;42.644;23.284;2023-04-26T17:10:09;92389.94;;;10.14;67.15
9229;BME280;4649;42.644;23.284;2023-04-26T17:12:53;92474.47;;;10.78;68.55
9229;BME280;4649;42.644;23.284;2023-04-26T17:15:38;92256.41;;;9.00;67.35
9229;BME280;4649;42.644;23.284;2023-04-26T17:18:34;92503.94;;;10.58;69.05
9229;BME280;4649;42.644;23.284;2023-04-26T17:38:37;92509.25;;;10.34;69.94
9229;BME280;4649;42.644;23.284;2023-04-26T17:41:18;92503.81;;;10.39;69.32
9229;BME280;4649;42.644;23.284;2023-04-26T17:46:42;92299.38;;;8.98;69.04
9229;BME280;4649;42.644;23.284;2023-04-26T17:49:35;92425.03;;;9.84;69.48
9229;BME280;4649;42.644;23.284;2023-04-26T18:09:58;92458.47;;;9.76;69.75
9229;BME280;4649;42.644;23.284;2023-04-26T18:13:02;92354.19;;;9.22;68.96
9229;BME280;4649;42.644;23.284;2023-04-26T18:18:25;92351.75;;;8.67;69.95
9229;BME280;4649;42.644;23.284;2023-04-26T18:28:14;92387.72;;;8.86;70.65
9229;BME280;4649;42.644;23.284;2023-04-26T23:01:25;92571.94;;;7.11;60.77
9229;BME280;4649;42.644;23.284;2023-04-26T23:05:10;92576.50;;;6.99;60.95
